Latest Weather Observations for Witchcliffe

IDW60801

Issued at 4:41 pm WST Saturday 31 January 2015 (issued every 30 minutes, with the page automatically refreshed every 10 minutes)

About weather observations | Map of weather stations | Latest weather observations for WA | Other Formats
Station Details ID: 009746 Name: WITCHCLIFFE Lat: -34.03 Lon: 115.10 Height: 80.0 m
Data from the previous 72 hours. | See also: Recent months at Witchcliffe
Date/Time
WST
Temp
°C
App
Temp
°C
Dew
Point
Rel
Hum
%
Delta-T
°C
Wind Press
QNH
hPa
Press
MSL
hPa
Rain
since 9 am
mm
Dir
 
Spd
km/h
Gust
km/h
Spd
kts
Gust
kts
31/04:30pm 30.8 29.4 15.6 39 9.4 SSE 17 24 9 13 1014.1 1013.9 0.0
31/04:00pm 31.2 28.4 14.4 36 10.3 SSE 22 28 12 15 1014.4 1014.2 0.0
31/03:30pm 30.8 28.8 15.6 39 9.4 S 20 33 11 18 1014.6 1014.4 0.0
31/03:00pm 31.5 29.2 14.2 35 10.5 SE 19 24 10 13 1014.6 1014.4 0.0
31/02:30pm 31.4 29.3 13.6 33 10.7 ESE 17 28 9 15 1014.7 1014.5 0.0
31/02:00pm 32.6 29.7 12.8 30 11.9 ESE 20 32 11 17 1014.9 1014.7 0.0
31/01:30pm 31.1 28.3 12.5 32 11.0 SE 19 33 10 18 1015.3 1015.1 0.0
31/01:00pm 31.1 28.1 12.5 32 11.0 SE 20 33 11 18 1015.6 1015.4 0.0
31/12:30pm 30.2 27.4 12.6 34 10.4 SE 19 28 10 15 1016.0 1015.8 0.0
31/12:00pm 29.0 26.6 12.8 36 9.6 ESE 17 30 9 16 1016.3 1016.1 0.0
31/11:30am 28.4 25.8 13.1 39 9.0 ESE 19 28 10 15 1016.6 1016.4 0.0
31/11:00am 26.8 23.9 12.4 40 8.4 SE 19 32 10 17 1016.9 1016.7 0.0
31/10:30am 25.7 23.0 12.9 45 7.5 SE 19 32 10 17 1017.1 1016.9 0.0
31/10:00am 24.4 22.4 12.7 48 6.7 ESE 15 24 8 13 1017.1 1016.9 0.0
31/09:30am 23.2 20.2 12.5 51 6.1 E 20 30 11 16 1017.3 1017.1 0.0
31/09:00am 22.3 19.9 12.5 53 5.6 E 17 24 9 13 1017.5 1017.3 0.0
31/08:30am 20.9 18.6 13.1 61 4.5 ESE 17 28 9 15 1017.7 1017.5 0.0
31/08:00am 19.6 16.8 12.6 64 3.9 ESE 19 28 10 15 1017.8 1017.6 0.0
31/07:30am 18.5 16.8 12.3 67 3.5 ESE 13 20 7 11 1017.9 1017.7 0.0
31/07:00am 17.0 15.6 12.1 73 2.7 ESE 11 22 6 12 1017.9 1017.7 0.0
31/06:30am 15.7 14.3 12.1 79 2.0 SE 11 15 6 8 1017.6 1017.4 0.0
31/06:00am 15.0 13.9 11.8 81 1.7 ESE 9 13 5 7 1017.3 1017.1 0.0
31/05:30am 15.0 13.5 11.8 81 1.7 ESE 11 17 6 9 1017.1 1016.9 0.0
31/05:00am 15.3 13.4 11.7 79 1.9 SE 13 19 7 10 1016.6 1016.4 0.0
31/04:30am 15.7 13.4 11.7 77 2.2 SE 15 22 8 12 1016.4 1016.2 0.0
31/04:00am 16.1 14.2 11.9 76 2.3 SE 13 20 7 11 1016.3 1016.1 0.0
31/03:30am 16.5 14.6 11.9 74 2.5 SSE 13 20 7 11 1016.2 1016.0 0.0
31/03:00am 17.2 16.1 11.9 71 2.9 SE 9 19 5 10 1016.0 1015.8 0.0
31/02:30am 17.4 15.6 12.1 71 2.9 ESE 13 20 7 11 1015.9 1015.7 0.0
31/02:00am 17.7 16.0 12.4 71 2.9 SE 13 20 7 11 1015.9 1015.7 0.0
31/01:30am 17.8 15.8 12.7 72 2.9 SE 15 22 8 12 1015.9 1015.7 0.0
31/01:00am 18.2 16.4 13.3 73 2.8 SE 15 20 8 11 1015.9 1015.7 0.0
31/12:30am 18.7 17.4 13.6 72 2.9 SE 13 20 7 11 1016.0 1015.8 0.0
31/12:00am 19.0 17.5 14.3 74 2.7 SE 15 22 8 12 1016.0 1015.8 0.0
 
Date/Time
WST
Temp
°C
App
Temp
°C
Dew
Point
Rel
Hum
%
Delta-T
°C
Wind Press
QNH
hPa
Press
MSL
hPa
Rain
since 9 am
mm
Dir
 
Spd
km/h
Gust
km/h
Spd
kts
Gust
kts
30/11:30pm 19.3 18.3 14.6 74 2.7 SE 13 20 7 11 1015.9 1015.7 0.0
30/11:00pm 19.7 18.9 15.1 75 2.7 SE 13 24 7 13 1016.0 1015.8 0.0
30/10:30pm 19.9 18.9 15.5 76 2.6 SE 15 24 8 13 1016.0 1015.8 0.0
30/10:00pm 20.2 18.9 15.8 76 2.6 SE 17 22 9 12 1015.9 1015.7 0.0
30/09:30pm 20.3 19.0 15.9 76 2.6 SSE 17 24 9 13 1015.8 1015.6 0.0
30/09:00pm 20.5 18.7 15.9 75 2.8 SSE 20 28 11 15 1015.5 1015.3 0.0
30/08:30pm 20.7 18.6 16.1 75 2.8 SSE 22 32 12 17 1015.1 1014.9 0.0
30/08:00pm 20.9 18.5 16.3 75 2.8 SSE 24 32 13 17 1014.7 1014.5 0.0
30/07:30pm 21.1 18.2 16.1 73 3.0 SSE 26 39 14 21 1014.5 1014.3 0.0
30/07:00pm 21.7 19.2 16.2 71 3.3 SSE 24 37 13 20 1014.1 1013.9 0.0
30/06:30pm 22.5 19.8 16.5 69 3.7 SSE 26 35 14 19 1014.0 1013.8 0.0
30/06:00pm 23.8 21.9 16.8 65 4.3 SSE 22 32 12 17 1013.6 1013.3 0.0
30/05:30pm 23.3 19.3 16.6 66 4.1 SSE 33 44 18 24 1013.5 1013.2 0.0
30/05:18pm 24.0 20.6 16.8 64 4.4 SSE 30 48 16 26 1013.4 1013.1 0.0
30/05:00pm 24.0 19.9 16.5 63 4.6 SSE 33 46 18 25 1013.4 1013.1 0.0
30/04:30pm 24.6 21.1 16.6 61 4.9 SSE 30 44 16 24 1013.3 1013.0 0.0
30/04:13pm 25.6 21.5 16.4 56 5.7 SSE 33 52 18 28 1013.4 1013.1 0.0
30/04:00pm 25.7 21.5 16.3 56 5.8 SSE 33 46 18 25 1013.3 1013.0 0.0
30/03:30pm 27.8 24.8 16.7 50 6.9 S 28 37 15 20 1013.5 1013.2 0.0
30/03:00pm 28.0 24.4 16.3 49 7.3 SSE 30 41 16 22 1013.4 1013.1 0.0
30/02:30pm 28.5 25.1 16.7 48 7.4 S 30 39 16 21 1013.6 1013.3 0.0
30/02:00pm 29.2 26.2 16.7 46 7.8 SSE 28 41 15 22 1013.7 1013.4 0.0
30/01:30pm 30.7 28.3 16.3 42 9.0 SSE 24 37 13 20 1013.7 1013.4 0.0
30/01:00pm 31.2 28.6 16.8 42 9.1 SSE 26 35 14 19 1013.9 1013.7 0.0
30/12:30pm 30.0 27.6 16.4 44 8.5 SE 24 33 13 18 1014.2 1014.0 0.0
30/12:00pm 29.7 26.3 15.8 43 8.6 SE 28 43 15 23 1014.5 1014.3 0.0
30/11:30am 27.9 24.9 15.9 48 7.4 SE 26 39 14 21 1014.8 1014.6 0.0
30/11:00am 26.7 24.3 16.3 53 6.4 SE 24 41 13 22 1015.1 1014.9 0.0
30/10:30am 25.3 22.2 15.6 55 5.9 SE 26 37 14 20 1015.5 1015.3 0.0
30/10:00am 24.8 21.9 16.2 58 5.3 SE 26 43 14 23 1015.8 1015.6 0.0
30/09:30am 23.4 20.0 15.7 62 4.7 SE 28 43 15 23 1016.1 1015.9 0.0
30/09:00am 23.2 19.9 16.0 64 4.4 SE 28 44 15 24 1016.1 1015.9 0.0
30/08:47am 22.3 18.4 15.6 66 4.0 SE 30 50 16 27 1016.0 1015.8 0.0
30/08:30am 21.8 18.4 15.9 69 3.6 SE 28 41 15 22 1015.9 1015.7 0.0
30/08:00am 21.0 18.1 16.2 74 2.9 SE 26 43 14 23 1015.9 1015.7 0.0
30/07:30am 20.1 16.8 16.1 78 2.4 SE 28 43 15 23 1015.9 1015.7 0.0
30/07:00am 19.9 16.8 16.5 81 2.1 SE 28 41 15 22 1015.6 1015.4 0.0
30/06:30am 19.4 17.2 16.8 85 1.6 SE 24 33 13 18 1015.4 1015.2 0.0
30/06:00am 19.2 16.1 16.6 85 1.6 SE 28 37 15 20 1015.3 1015.1 0.0
30/05:30am 19.2 16.9 16.6 85 1.6 SE 24 46 13 25 1015.1 1014.9 0.0
30/05:24am 19.2 16.1 16.6 85 1.6 SE 28 46 15 25 1014.8 1014.6 0.0
30/05:00am 19.2 16.2 16.8 86 1.5 SE 28 37 15 20 1014.8 1014.6 0.0
30/04:30am 19.3 15.5 16.7 85 1.6 SE 32 44 17 24 1014.9 1014.7 0.0
30/04:00am 19.3 16.7 16.9 86 1.5 SE 26 39 14 21 1014.8 1014.6 0.0
30/03:30am 19.2 15.9 17.0 87 1.3 SSE 30 48 16 26 1014.3 1014.1 0.0
30/03:23am 19.2 16.0 17.2 88 1.2 SE 30 48 16 26 1014.2 1014.0 0.0
30/03:00am 19.1 17.4 17.1 88 1.2 SE 22 33 12 18 1014.1 1013.9 0.0
30/02:30am 19.2 16.2 16.8 86 1.5 SE 28 44 15 24 1014.1 1013.9 0.0
30/02:00am 19.3 16.3 16.9 86 1.5 SE 28 46 15 25 1014.2 1014.0 0.0
30/01:37am 19.2 15.7 16.6 85 1.6 SE 30 48 16 26 1014.1 1013.9 0.0
30/01:30am 19.2 15.4 16.6 85 1.6 SE 32 48 17 26 1014.1 1013.9 0.0
30/01:00am 19.3 16.4 17.1 87 1.3 SE 28 39 15 21 1014.2 1014.0 0.0
30/12:30am 19.2 16.0 17.2 88 1.2 SE 30 46 16 25 1014.1 1013.9 0.0
30/12:00am 19.1 15.5 17.2 89 1.2 SSE 32 46 17 25 1014.2 1014.0 0.0
 
Date/Time
WST
Temp
°C
App
Temp
°C
Dew
Point
Rel
Hum
%
Delta-T
°C
Wind Press
QNH
hPa
Press
MSL
hPa
Rain
since 9 am
mm
Dir
 
Spd
km/h
Gust
km/h
Spd
kts
Gust
kts
29/11:30pm 19.0 16.4 17.8 93 0.7 SE 28 44 15 24 1014.2 1014.0 0.0
29/11:28pm 19.0 16.4 17.8 93 0.7 SE 28 46 15 25 1014.2 1014.0 0.0
29/11:00pm 18.8 16.8 18.3 97 0.3 SE 26 50 14 27 1014.3 1014.1 0.0
29/10:51pm 18.7 16.3 18.2 97 0.3 SE 28 50 15 27 1014.3 1014.1 0.0
29/10:30pm 18.7 15.9 18.2 97 0.3 SE 30 44 16 24 1014.4 1014.2 0.0
29/10:00pm 18.7 15.6 18.4 98 0.2 SE 32 46 17 25 1014.4 1014.2 0.0
29/09:30pm 18.6 15.4 18.1 97 0.3 SE 32 48 17 26 1014.5 1014.3 0.0
29/09:00pm 18.8 15.8 17.8 94 0.6 SE 30 50 16 27 1014.5 1014.3 0.0
29/08:51pm 18.9 15.9 17.7 93 0.7 SE 30 50 16 27 1014.5 1014.3 0.0
29/08:30pm 19.1 15.5 17.2 89 1.2 SE 32 48 17 26 1014.5 1014.3 0.0
29/08:11pm 19.2 16.0 17.3 89 1.2 SE 30 48 16 26 1013.9 1013.7 0.0
29/08:00pm 19.0 15.4 17.3 90 1.0 SE 32 46 17 25 1014.0 1013.8 0.0
29/07:35pm 19.0 16.2 17.3 90 1.0 SSE 28 46 15 25 1013.6 1013.3 0.0
29/07:30pm 19.1 16.3 17.4 90 1.0 SE 28 44 15 24 1013.6 1013.3 0.0
29/07:00pm 19.0 15.9 17.5 91 0.9 SSE 30 44 16 24 1013.3 1013.0 0.0
29/06:35pm 19.6 15.7 16.4 82 1.9 SE 32 54 17 29 1013.0 1012.7 0.0
29/06:30pm 19.7 15.9 16.7 83 1.8 SE 32 46 17 25 1013.0 1012.7 0.0
29/06:00pm 20.0 16.2 16.6 81 2.1 SE 32 50 17 27 1012.5 1012.2 0.0
29/05:30pm 20.2 16.2 16.6 80 2.2 SE 33 56 18 30 1012.2 1011.9 0.0
29/05:11pm 20.4 16.9 16.4 78 2.4 SSE 30 48 16 26 1012.0 1011.7 0.0
29/05:00pm 20.5 17.3 16.3 77 2.5 SE 28 43 15 23 1012.0 1011.7 0.0
29/04:30pm 21.1 17.3 16.7 76 2.7 SE 32 50 17 27 1012.3 1012.0 0.0
29/04:25pm 20.8 16.9 16.4 76 2.7 SSE 32 50 17 27 1012.3 1012.0 0.0
29/04:00pm 21.5 16.9 16.0 71 3.3 SSE 35 48 19 26 1012.3 1012.0 0.0
29/03:30pm 22.2 18.0 16.2 69 3.6 SSE 33 44 18 24 1012.4 1012.1 0.0
29/03:00pm 23.0 19.0 16.3 66 4.1 SSE 32 46 17 25 1012.5 1012.2 0.0
29/02:33pm 24.3 21.3 16.8 63 4.6 SSE 28 46 15 25 1012.4 1012.1 0.0
29/02:30pm 24.0 21.3 16.5 63 4.6 SSE 26 39 14 21 1012.5 1012.2 0.0
29/02:21pm 23.6 20.6 16.9 66 4.1 SSE 28 46 15 25 1012.5 1012.2 0.0
29/02:00pm 22.5 18.2 15.8 66 4.0 SSE 33 46 18 25 1012.7 1012.4 0.0
29/01:30pm 22.4 18.7 16.0 67 3.9 SSE 30 41 16 22 1012.5 1012.2 0.0
29/01:00pm 23.1 19.1 16.6 67 4.0 SSE 33 44 18 24 1012.5 1012.2 0.0
29/12:30pm 22.8 19.5 16.1 66 4.1 SSE 28 44 15 24 1012.7 1012.4 0.0
29/12:00pm 22.2 18.9 16.0 68 3.7 SE 28 39 15 21 1012.9 1012.6 0.0
29/11:30am 22.8 20.5 16.6 68 3.8 SSE 24 37 13 20 1013.0 1012.7 0.0
29/11:16am 22.1 19.0 16.6 71 3.4 SSE 28 46 15 25 1013.0 1012.7 0.0
29/11:00am 21.8 18.2 16.3 71 3.3 SSE 30 41 16 22 1013.1 1012.8 0.0
29/10:30am 21.8 19.9 16.7 73 3.1 SSE 22 35 12 19 1013.3 1013.0 0.0
29/10:00am 21.3 18.6 16.5 74 2.9 SSE 26 39 14 21 1013.1 1012.8 0.0
29/09:30am 21.3 18.3 16.9 76 2.7 SSE 28 39 15 21 1012.9 1012.6 0.0
29/09:00am 21.4 19.5 16.8 75 2.8 SE 22 39 12 21 1012.8 1012.5 0.0
29/08:30am 20.7 19.0 17.3 81 2.1 SE 22 30 12 16 1012.6 1012.3 0.0
29/08:00am 20.7 18.3 17.3 81 2.1 SSE 26 37 14 20 1012.4 1012.1 0.0
29/07:30am 20.2 18.2 17.4 84 1.7 SSE 24 33 13 18 1012.2 1011.9 0.0
29/07:00am 20.0 18.8 17.6 86 1.5 SSE 20 30 11 16 1011.8 1011.5 0.0
29/06:30am 19.9 18.6 17.3 85 1.6 SSE 20 28 11 15 1011.6 1011.3 0.0
29/06:00am 19.9 18.9 17.5 86 1.5 SSE 19 26 10 14 1011.3 1011.0 0.0
29/05:30am 19.8 19.3 17.8 88 1.2 SSE 17 26 9 14 1011.1 1010.8 0.0
29/05:00am 19.6 19.2 18.1 91 0.9 SSE 17 26 9 14 1010.6 1010.3 0.0
29/04:30am 19.3 19.5 18.5 95 0.5 SSE 15 20 8 11 1010.3 1010.0 0.0
29/04:00am 18.9 20.1 18.2 96 0.4 SE 9 13 5 7 1009.8 1009.5 0.0
29/03:30am 18.9 20.0 17.9 94 0.6 SSE 9 13 5 7 1009.5 1009.2 0.0
29/03:00am 19.1 19.8 17.9 93 0.7 S 11 17 6 9 1009.3 1009.0 0.0
29/02:30am 19.3 19.6 17.8 91 0.9 SSE 13 19 7 10 1009.1 1008.8 0.0
29/02:00am 19.9 19.9 18.2 90 1.1 SSE 15 20 8 11 1009.2 1008.9 0.0
29/01:30am 19.9 20.4 18.4 91 0.9 SSE 13 19 7 10 1009.1 1008.8 0.0
29/01:00am 19.4 20.4 17.7 90 1.0 SSE 9 15 5 8 1009.1 1008.8 0.0
29/12:30am 19.6 21.0 17.7 89 1.2 SSW 7 9 4 5 1009.2 1008.9 0.0
29/12:00am 19.2 20.0 16.4 84 1.7 WSW 7 11 4 6 1009.3 1009.0 0.0
 
Date/Time
WST
Temp
°C
App
Temp
°C
Dew
Point
Rel
Hum
%
Delta-T
°C
Wind Press
QNH
hPa
Press
MSL
hPa
Rain
since 9 am
mm
Dir
 
Spd
km/h
Gust
km/h
Spd
kts
Gust
kts
28/11:30pm 18.7 20.3 14.8 78 2.3 CALM 0 0 0 0 1008.8 1008.5 0.0
28/11:00pm 19.1 20.7 15.0 77 2.4 CALM 0 0 0 0 1008.6 1008.3 0.0
28/10:30pm 20.3 22.0 15.3 73 3.0 CALM 0 0 0 0 1008.5 1008.2 0.0
28/10:00pm 20.7 20.3 14.1 66 3.8 WSW 9 11 5 6 1008.5 1008.2 0.0
28/09:30pm 21.3 22.4 13.5 61 4.5 CALM 0 0 0 0 1008.4 1008.1 0.0
28/09:00pm 22.0 23.1 13.4 58 5.0 CALM 0 0 0 0 1008.3 1008.0 0.0
28/08:30pm 22.8 22.8 13.6 56 5.4 SE 6 7 3 4 1008.0 1007.7 0.0
28/08:00pm 23.7 24.4 13.3 52 6.1 S 2 6 1 3 1007.9 1007.6 0.0
28/07:30pm 24.7 24.4 13.3 49 6.7 S 7 11 4 6 1007.7 1007.4 0.0
28/07:00pm 25.8 24.1 12.6 44 7.7 SSW 13 17 7 9 1007.7 1007.4 0.0
28/06:30pm 26.1 22.9 13.2 44 7.6 SE 22 33 12 18 1008.2 1007.9 0.0
28/06:00pm 29.1 26.4 12.9 37 9.6 S 19 30 10 16 1007.5 1007.2 0.0
28/05:30pm 29.8 27.9 13.1 36 9.9 SW 15 20 8 11 1007.0 1006.8 0.0
28/05:00pm 30.5 29.8 14.2 37 9.9 SW 11 17 6 9 1006.5 1006.3 0.0

Other Formats:

Comma delimited format used in spreadsheet applications
http://www.bom.gov.au/fwo/IDW60801/IDW60801.95641.axf

JavaScript Object Notation format (JSON) in row-major order
http://www.bom.gov.au/fwo/IDW60801/IDW60801.95641.json